createdAt,value
2023-04-15T00:04:33.887Z,14.43
2023-04-15T00:09:32.858Z,14.37
2023-04-15T00:14:32.273Z,14.54
2023-04-15T00:19:33.395Z,14.51
2023-04-15T00:24:32.852Z,14.42
2023-04-15T00:29:32.113Z,14.26
2023-04-15T00:34:32.552Z,14.47
2023-04-15T00:39:31.589Z,14.72
2023-04-15T00:44:30.461Z,14.82
2023-04-15T00:49:30.373Z,15.08
2023-04-15T00:54:30.720Z,15.26
2023-04-15T00:59:30.809Z,15.35
2023-04-15T01:04:29.794Z,15.44
2023-04-15T01:09:28.643Z,15.45
2023-04-15T01:14:29.186Z,15.29
2023-04-15T01:19:28.681Z,15.22
2023-04-15T01:24:29.062Z,15.31
2023-04-15T01:29:29.392Z,15.35
2023-04-15T01:34:28.356Z,15.35
2023-04-15T01:39:27.268Z,15.32
2023-04-15T01:44:30.185Z,15.30
2023-04-15T01:49:29.181Z,15.23
2023-04-15T01:54:28.604Z,15.24
2023-04-15T01:59:27.562Z,15.22
2023-04-15T02:04:28.160Z,15.24
2023-04-15T02:09:27.059Z,15.27
2023-04-15T02:14:26.112Z,15.25
2023-04-15T02:19:27.904Z,15.27
2023-04-15T02:24:27.935Z,15.28
2023-04-15T02:29:26.747Z,15.31
2023-04-15T02:34:27.294Z,15.30
2023-04-15T02:39:30.727Z,15.36
2023-04-15T02:44:29.592Z,15.34
2023-04-15T02:49:31.198Z,15.29
2023-04-15T02:54:32.866Z,15.13
2023-04-15T02:59:32.154Z,15.00
2023-04-15T03:04:31.053Z,14.97
2023-04-15T03:09:31.428Z,14.93
2023-04-15T03:14:32.653Z,14.95
2023-04-15T03:19:31.990Z,15.00
2023-04-15T03:24:32.718Z,14.94
2023-04-15T03:29:32.035Z,14.84
2023-04-15T03:34:31.362Z,14.85
2023-04-15T03:39:30.317Z,14.88
2023-04-15T03:44:30.738Z,14.89
2023-04-15T03:49:29.628Z,14.90
2023-04-15T03:54:28.561Z,14.92
2023-04-15T03:59:27.459Z,14.95
2023-04-15T04:04:27.687Z,14.98
2023-04-15T04:09:26.675Z,15.01
2023-04-15T04:14:29.714Z,14.99
2023-04-15T04:19:30.160Z,14.99
2023-04-15T04:24:29.070Z,15.02
2023-04-15T04:29:27.874Z,15.10
2023-04-15T04:34:26.763Z,15.13
2023-04-15T04:39:26.929Z,15.17
2023-04-15T04:44:25.884Z,15.20
2023-04-15T04:49:24.719Z,15.20
2023-04-15T04:54:23.928Z,15.14
2023-04-15T04:59:24.255Z,14.86
2023-04-15T05:04:23.022Z,14.90
2023-04-15T05:09:21.869Z,14.93
2023-04-15T05:14:22.947Z,14.77
2023-04-15T05:19:23.758Z,14.80
2023-04-15T05:24:22.667Z,14.80
2023-04-15T05:29:21.670Z,14.77
2023-04-15T05:34:20.772Z,14.82
2023-04-15T05:39:21.153Z,14.94
2023-04-15T05:44:20.060Z,14.99
2023-04-15T05:49:18.917Z,14.97
2023-04-15T05:54:20.219Z,15.18
2023-04-15T05:59:20.733Z,15.36
2023-04-15T06:04:19.666Z,15.42
2023-04-15T06:09:18.605Z,15.57
2023-04-15T06:14:17.567Z,15.77
2023-04-15T06:19:18.511Z,15.85
2023-04-15T06:24:17.420Z,16.05
2023-04-15T06:29:16.418Z,16.22
2023-04-15T06:34:15.225Z,16.43
2023-04-15T06:39:15.569Z,16.64
2023-04-15T06:44:14.363Z,16.37
2023-04-15T06:49:13.163Z,16.26
2023-04-15T06:54:12.137Z,16.33
2023-04-15T06:59:13.000Z,16.47
2023-04-15T07:04:12.654Z,16.47
2023-04-15T07:09:11.699Z,16.20
2023-04-15T07:14:12.180Z,16.25
2023-04-15T07:19:10.904Z,16.28
2023-04-15T07:24:10.610Z,16.12
2023-04-15T07:29:09.593Z,16.21
2023-04-15T07:34:09.919Z,15.90
2023-04-15T07:39:08.789Z,15.98
2023-04-15T07:44:07.613Z,16.02
2023-04-15T07:49:06.436Z,15.83
2023-04-15T07:54:06.752Z,16.06
2023-04-15T07:59:06.667Z,16.06
2023-04-15T08:04:05.852Z,16.04
2023-04-15T08:09:06.326Z,16.16
2023-04-15T08:14:05.170Z,16.22
2023-04-15T08:19:04.191Z,16.27
2023-04-15T08:24:03.402Z,16.33
2023-04-15T08:29:03.932Z,16.49
2023-04-15T08:34:02.937Z,16.79
2023-04-15T08:39:03.499Z,16.68
2023-04-15T08:44:06.699Z,17.13
2023-04-15T08:49:07.239Z,17.76
2023-04-15T08:54:06.673Z,18.26
2023-04-15T08:59:07.328Z,18.94
2023-04-15T09:04:08.383Z,19.90
2023-04-15T09:09:07.423Z,20.86
2023-04-15T09:14:07.744Z,21.18
2023-04-15T09:19:22.806Z,20.99
2023-04-15T09:24:21.827Z,21.68
2023-04-15T09:29:22.175Z,22.79
2023-04-15T09:34:21.302Z,23.01
2023-04-15T09:39:20.058Z,23.43
2023-04-15T09:44:26.734Z,23.68
2023-04-15T09:49:25.557Z,23.97
2023-04-15T09:54:24.474Z,24.61
2023-04-15T09:59:24.212Z,25.41
2023-04-15T10:04:27.829Z,26.50
2023-04-15T10:09:26.985Z,26.80
2023-04-15T10:14:30.442Z,28.55
2023-04-15T10:19:32.910Z,28.91
2023-04-15T10:24:33.390Z,28.80
2023-04-15T10:29:33.223Z,29.02
2023-04-15T10:34:34.085Z,29.84
2023-04-15T10:39:44.509Z,31.25
2023-04-15T10:44:45.952Z,30.98
2023-04-15T10:49:48.840Z,30.50
2023-04-15T10:54:47.728Z,30.34
2023-04-15T11:00:11.631Z,30.04
2023-04-15T11:05:12.579Z,30.35
2023-04-15T11:10:55.235Z,31.23
2023-04-15T11:15:58.445Z,30.24
2023-04-15T11:21:00.229Z,30.75
2023-04-15T11:26:00.759Z,31.93
2023-04-15T11:31:00.526Z,32.12
2023-04-15T11:36:00.772Z,32.63
2023-04-15T11:40:59.758Z,32.49
2023-04-15T11:45:59.885Z,33.17
2023-04-15T11:51:01.560Z,34.25
2023-04-15T11:56:01.128Z,34.01
2023-04-15T12:01:01.213Z,33.70
2023-04-15T12:06:08.360Z,33.93
2023-04-15T12:11:07.095Z,33.74
2023-04-15T12:16:06.054Z,32.79
2023-04-15T12:21:11.163Z,32.62
2023-04-15T12:26:12.146Z,31.87
2023-04-15T12:31:11.496Z,32.68
2023-04-15T12:36:11.685Z,33.09
2023-04-15T12:41:10.415Z,32.51
2023-04-15T12:46:10.359Z,32.27
2023-04-15T12:51:11.740Z,30.98
2023-04-15T12:56:10.575Z,30.46
2023-04-15T13:01:10.305Z,30.60
2023-04-15T13:06:09.030Z,31.14
2023-04-15T13:11:09.306Z,31.11
2023-04-15T13:16:08.427Z,31.45
2023-04-15T13:21:07.739Z,31.94
2023-04-15T13:26:06.693Z,31.95
2023-04-15T13:31:07.229Z,31.62
2023-04-15T13:36:06.247Z,31.13
2023-04-15T13:41:05.170Z,30.63
2023-04-15T13:46:04.134Z,30.61
2023-04-15T13:51:04.400Z,29.92
2023-04-15T13:56:03.276Z,29.79
2023-04-15T14:01:04.720Z,29.87
2023-04-15T14:06:06.596Z,30.08
2023-04-15T14:11:05.450Z,29.46
2023-04-15T14:16:04.660Z,28.68
2023-04-15T14:21:03.796Z,28.40
2023-04-15T14:26:03.983Z,28.46
2023-04-15T14:31:03.055Z,28.07
2023-04-15T14:36:01.879Z,27.88
2023-04-15T14:41:01.191Z,27.53
2023-04-15T14:46:01.559Z,27.46
2023-04-15T14:51:00.996Z,27.04
2023-04-15T14:56:00.063Z,26.85
2023-04-15T15:00:58.882Z,26.50
2023-04-15T15:05:59.154Z,26.29
2023-04-15T15:10:57.911Z,26.28
2023-04-15T15:15:59.100Z,26.23
2023-04-15T15:20:59.354Z,26.16
2023-04-15T15:25:59.727Z,26.14
2023-04-15T15:30:58.723Z,25.76
2023-04-15T15:35:58.915Z,25.34
2023-04-15T15:40:59.390Z,24.99
2023-04-15T15:45:58.330Z,24.74
2023-04-15T15:50:57.200Z,24.49
2023-04-15T15:55:56.059Z,24.15
2023-04-15T16:00:56.233Z,24.11
2023-04-15T16:05:55.289Z,23.98
2023-04-15T16:10:54.155Z,23.56
2023-04-15T16:15:53.194Z,23.36
2023-04-15T16:20:53.551Z,23.26
2023-04-15T16:25:52.677Z,23.09
2023-04-15T16:30:51.676Z,22.85
2023-04-15T16:35:50.474Z,22.91
2023-04-15T16:40:51.626Z,23.04
2023-04-15T16:45:51.527Z,23.08
2023-04-15T16:50:50.561Z,22.82
2023-04-15T16:55:50.709Z,22.58
2023-04-15T17:00:49.778Z,22.46
2023-04-15T17:05:48.602Z,22.37
2023-04-15T17:10:47.538Z,22.30
2023-04-15T17:15:49.741Z,22.22
2023-04-15T17:20:48.572Z,22.10
2023-04-15T17:25:47.793Z,22.01
2023-04-15T17:30:48.231Z,21.88
2023-04-15T17:35:47.195Z,21.76
2023-04-15T17:40:46.075Z,21.58
2023-04-15T17:45:46.460Z,21.39
2023-04-15T17:50:46.793Z,21.20
2023-04-15T17:55:46.400Z,21.10
2023-04-15T18:00:45.325Z,21.05
2023-04-15T18:05:44.087Z,20.98
2023-04-15T18:10:44.349Z,20.90
2023-04-15T18:15:45.580Z,20.78
2023-04-15T18:20:45.735Z,20.64
2023-04-15T18:25:46.173Z,20.51
2023-04-15T18:30:45.205Z,20.43
2023-04-15T18:35:44.206Z,20.33
2023-04-15T18:40:43.017Z,20.20
2023-04-15T18:45:43.536Z,20.04
2023-04-15T18:50:44.526Z,20.01
2023-04-15T18:55:43.390Z,19.96
2023-04-15T19:00:44.400Z,19.87
2023-04-15T19:05:43.438Z,19.75
2023-04-15T19:10:42.286Z,19.68
2023-04-15T19:15:41.142Z,19.57
2023-04-15T19:20:41.559Z,19.39
2023-04-15T19:25:40.463Z,19.13
2023-04-15T19:30:39.348Z,18.96
2023-04-15T19:35:38.446Z,19.00
2023-04-15T19:40:38.641Z,19.03
2023-04-15T19:45:37.682Z,19.00
2023-04-15T19:50:37.304Z,18.98
2023-04-15T19:55:36.229Z,18.86
2023-04-15T20:00:37.453Z,18.68
2023-04-15T20:05:36.202Z,18.54
2023-04-15T20:10:35.459Z,18.53
2023-04-15T20:15:34.306Z,18.38
2023-04-15T20:20:36.265Z,18.19
2023-04-15T20:25:35.170Z,18.00
2023-04-15T20:30:34.052Z,17.95
2023-04-15T20:35:34.207Z,17.83
2023-04-15T20:40:34.021Z,17.74
2023-04-15T20:45:32.884Z,17.58
2023-04-15T20:50:31.864Z,17.45
2023-04-15T20:55:32.003Z,17.37
2023-04-15T21:00:31.179Z,17.33
2023-04-15T21:05:30.088Z,17.28
2023-04-15T21:10:34.001Z,17.23
2023-04-15T21:15:34.257Z,17.22
2023-04-15T21:20:33.019Z,17.19
2023-04-15T21:25:31.813Z,17.05
2023-04-15T21:30:30.871Z,17.06
2023-04-15T21:35:31.833Z,16.90
2023-04-15T21:40:30.688Z,16.89
2023-04-15T21:45:29.592Z,16.89
2023-04-15T21:50:30.334Z,16.84
2023-04-15T21:55:31.082Z,16.86
2023-04-15T22:00:30.226Z,16.80
2023-04-15T22:05:29.886Z,16.71
2023-04-15T22:10:30.250Z,16.70
2023-04-15T22:15:29.185Z,16.77
2023-04-15T22:20:28.093Z,16.82
2023-04-15T22:25:27.045Z,16.84
2023-04-15T22:30:27.640Z,16.79
2023-04-15T22:35:26.554Z,16.67
2023-04-15T22:40:25.520Z,16.67
2023-04-15T22:45:24.477Z,16.73
2023-04-15T22:50:25.056Z,16.69
2023-04-15T22:55:24.120Z,16.76
2023-04-15T23:00:23.337Z,16.69
2023-04-15T23:05:22.505Z,16.59
2023-04-15T23:10:22.993Z,16.53
2023-04-15T23:15:22.003Z,16.52
2023-04-15T23:20:20.810Z,16.58
2023-04-15T23:25:22.303Z,16.56
2023-04-15T23:30:23.398Z,16.46
2023-04-15T23:35:22.256Z,16.44
2023-04-15T23:40:21.449Z,16.44
2023-04-15T23:45:20.194Z,16.40
2023-04-15T23:50:20.934Z,16.35
2023-04-15T23:55:20.965Z,16.36
